Time;durP1;ratioP1;P1;durP2;ratioP2;P2;SDS_P1;SDS_P2;PMS_P1;PMS_P2;Temp;Humidity;BMP_temperature;BMP_pressure;BME280_temperature;BME280_humidity;BME280_pressure;Samples;Min_cycle;Max_cycle;Signal;HPM_P1;HPM_P2
2022/08/06 00:01:56;;;;;;;6.60;4.33;;;21.00;99.90;;;;;;5092834;28;20443;-42
2022/08/06 00:04:24;;;;;;;4.63;4.23;;;21.00;99.90;;;;;;5092601;28;20881;-48
2022/08/06 00:06:52;;;;;;;4.63;3.73;;;21.00;99.90;;;;;;5092753;28;20771;-48
2022/08/06 00:09:19;;;;;;;6.40;4.13;;;20.90;99.90;;;;;;5092420;28;20453;-46
2022/08/06 00:11:45;;;;;;;6.00;4.73;;;20.90;99.90;;;;;;5092624;28;20525;-49
2022/08/06 00:14:13;;;;;;;4.07;3.77;;;20.90;99.90;;;;;;5092584;28;20517;-46
2022/08/06 00:16:40;;;;;;;4.70;4.30;;;20.90;99.90;;;;;;5092437;28;20451;-52
2022/08/06 00:19:07;;;;;;;5.27;4.77;;;20.90;99.90;;;;;;5092426;28;20535;-46
2022/08/06 00:21:35;;;;;;;4.47;4.07;;;21.00;99.90;;;;;;5092253;28;20955;-52
2022/08/06 00:24:02;;;;;;;5.37;4.17;;;21.00;99.90;;;;;;5092334;28;20513;-51
2022/08/06 00:26:29;;;;;;;4.87;4.37;;;21.10;99.90;;;;;;5092338;28;20493;-46
2022/08/06 00:28:56;;;;;;;4.93;4.13;;;21.00;99.90;;;;;;5092131;28;20785;-47
2022/08/06 00:31:23;;;;;;;4.73;3.43;;;21.00;99.90;;;;;;5091438;28;20467;-47
2022/08/06 00:33:50;;;;;;;5.63;4.30;;;21.00;99.90;;;;;;5092137;28;20476;-49
2022/08/06 00:36:18;;;;;;;4.77;4.37;;;21.00;99.90;;;;;;5092141;28;20489;-47
2022/08/06 00:38:46;;;;;;;4.50;3.77;;;21.00;99.90;;;;;;5091929;28;20496;-46
2022/08/06 00:41:14;;;;;;;4.80;4.03;;;20.90;99.90;;;;;;5091920;28;20509;-50
2022/08/06 00:43:42;;;;;;;4.43;3.53;;;21.00;99.90;;;;;;5091746;28;20463;-48
2022/08/06 00:46:09;;;;;;;4.53;4.13;;;21.00;99.90;;;;;;5091981;28;20451;-47
2022/08/06 00:48:36;;;;;;;8.57;4.40;;;21.00;99.90;;;;;;5092084;28;20478;-46
2022/08/06 00:51:03;;;;;;;4.80;4.00;;;21.00;99.90;;;;;;5091553;28;20593;-47
2022/08/06 00:53:31;;;;;;;5.03;4.53;;;20.80;99.90;;;;;;5091604;28;20428;-46
2022/08/06 00:56:00;;;;;;;5.10;3.90;;;20.90;99.90;;;;;;5091857;28;20455;-45
2022/08/06 00:58:28;;;;;;;4.10;3.80;;;20.90;99.90;;;;;;5092005;28;20443;-46
2022/08/06 01:00:55;;;;;;;3.97;3.30;;;20.90;99.90;;;;;;5091191;28;20875;-47
2022/08/06 01:03:22;;;;;;;4.47;3.70;;;21.00;99.90;;;;;;5091406;28;20443;-45
2022/08/06 01:05:49;;;;;;;4.87;3.90;;;20.90;99.90;;;;;;5091522;28;20524;-46
2022/08/06 01:08:16;;;;;;;4.43;4.03;;;20.90;99.90;;;;;;5091339;28;20748;-46
2022/08/06 01:10:43;;;;;;;6.20;3.40;;;20.90;99.90;;;;;;5091095;28;20890;-47
2022/08/06 01:13:12;;;;;;;3.93;3.40;;;21.00;99.90;;;;;;5091418;28;20468;-46
2022/08/06 01:15:43;;;;;;;4.57;3.80;;;20.90;99.90;;;;;;5091345;28;20472;-46
2022/08/06 01:18:12;;;;;;;4.33;3.40;;;20.80;99.90;;;;;;5091159;28;20432;-48
2022/08/06 01:21:01;;;;;;;6.07;4.17;;;20.70;99.90;;;;;;5091119;28;20486;-46
2022/08/06 01:23:52;;;;;;;7.20;4.20;;;20.80;99.90;;;;;;5091005;28;20432;-53
2022/08/06 01:26:36;;;;;;;4.40;4.00;;;20.80;99.90;;;;;;5091201;28;20491;-46
2022/08/06 01:29:10;;;;;;;4.33;4.03;;;20.70;99.90;;;;;;5090897;28;20443;-46
2022/08/06 01:31:44;;;;;;;4.03;3.63;;;20.50;99.90;;;;;;5090854;28;20524;-48
2022/08/06 01:34:17;;;;;;;4.27;3.87;;;20.60;99.90;;;;;;5090975;28;20459;-47
2022/08/06 01:36:49;;;;;;;5.43;3.40;;;20.60;99.90;;;;;;5091044;28;20452;-46
2022/08/06 01:39:19;;;;;;;4.20;3.40;;;20.60;99.90;;;;;;5090813;28;20986;-47
2022/08/06 01:41:52;;;;;;;4.20;3.80;;;20.60;99.90;;;;;;5090829;28;20443;-47
2022/08/06 01:44:23;;;;;;;3.87;3.57;;;20.50;99.90;;;;;;5090600;28;20980;-46
2022/08/06 01:46:53;;;;;;;4.53;3.57;;;20.50;99.90;;;;;;5090738;28;20486;-49
2022/08/06 01:49:25;;;;;;;7.07;4.17;;;20.50;99.90;;;;;;5090621;28;20439;-48
2022/08/06 01:51:55;;;;;;;4.20;3.90;;;20.60;99.90;;;;;;5090439;28;20995;-49
2022/08/06 01:54:24;;;;;;;4.60;4.20;;;20.60;99.90;;;;;;5090486;28;20564;-47
2022/08/06 01:56:54;;;;;;;4.10;3.80;;;20.60;99.90;;;;;;5090628;28;20448;-47
2022/08/06 01:59:27;;;;;;;4.10;3.80;;;20.70;99.90;;;;;;5090612;28;20432;-42
2022/08/06 02:01:57;;;;;;;4.20;3.80;;;20.70;99.90;;;;;;5090456;28;20866;-46
2022/08/06 02:04:28;;;;;;;4.50;3.30;;;20.70;99.90;;;;;;5090547;28;20464;-48
2022/08/06 02:06:57;;;;;;;4.80;4.40;;;20.70;99.90;;;;;;5090562;28;20452;-46
2022/08/06 02:09:24;;;;;;;4.13;3.60;;;20.80;99.90;;;;;;5090222;28;20452;-46
2022/08/06 02:11:56;;;;;;;4.23;3.83;;;20.90;99.90;;;;;;5090124;28;20462;-47
2022/08/06 02:14:26;;;;;;;5.13;4.63;;;20.90;99.90;;;;;;5090740;28;20517;-49
2022/08/06 02:16:55;;;;;;;4.97;4.57;;;20.80;99.90;;;;;;5090282;28;20444;-46
2022/08/06 02:19:25;;;;;;;6.07;4.20;;;20.70;99.90;;;;;;5090177;28;20521;-50
2022/08/06 02:21:54;;;;;;;4.63;4.03;;;20.50;99.90;;;;;;5090079;28;20434;-46
2022/08/06 02:24:25;;;;;;;6.53;4.57;;;20.40;99.90;;;;;;5090042;28;20501;-46
2022/08/06 02:26:53;;;;;;;5.87;4.60;;;20.40;99.90;;;;;;5090043;28;20428;-48
2022/08/06 02:29:22;;;;;;;4.70;4.20;;;20.30;99.90;;;;;;5089908;28;20451;-50
2022/08/06 02:31:52;;;;;;;4.97;4.47;;;20.20;99.90;;;;;;5089789;28;20497;-45
2022/08/06 02:34:21;;;;;;;5.23;4.67;;;20.20;99.90;;;;;;5089779;28;20919;-46
2022/08/06 02:36:57;;;;;;;4.80;4.30;;;20.10;99.90;;;;;;5090017;28;20497;-48
2022/08/06 02:39:28;;;;;;;5.30;4.80;;;20.10;99.90;;;;;;5089819;28;21011;-46
2022/08/06 02:42:04;;;;;;;5.47;4.70;;;20.10;99.90;;;;;;5090158;28;20529;-46
2022/08/06 02:44:43;;;;;;;8.50;4.93;;;20.10;99.90;;;;;;5089953;28;20535;-47
2022/08/06 02:47:15;;;;;;;5.50;5.00;;;20.10;99.90;;;;;;5089806;28;20908;-45
2022/08/06 02:49:46;;;;;;;5.47;4.97;;;20.10;99.90;;;;;;5089576;28;20435;-46
2022/08/06 02:52:17;;;;;;;5.27;4.77;;;20.00;99.90;;;;;;5089644;28;20488;-47
2022/08/06 02:54:49;;;;;;;5.37;4.60;;;20.00;99.90;;;;;;5093361;28;20562;-47
2022/08/06 02:57:22;;;;;;;5.00;4.50;;;20.00;99.90;;;;;;5094161;28;20447;-47
2022/08/06 02:59:54;;;;;;;4.90;4.40;;;20.10;99.90;;;;;;5093643;28;20492;-47
2022/08/06 03:02:26;;;;;;;5.97;5.07;;;20.00;99.90;;;;;;5093750;28;20440;-48
2022/08/06 03:04:56;;;;;;;5.50;5.00;;;20.00;99.90;;;;;;5093867;28;20459;-45
2022/08/06 03:07:25;;;;;;;4.50;4.10;;;20.10;99.90;;;;;;5093780;28;20435;-46
2022/08/06 03:09:53;;;;;;;5.20;4.70;;;20.20;99.90;;;;;;5093978;28;20485;-50
2022/08/06 03:12:21;;;;;;;5.03;4.53;;;20.30;99.90;;;;;;5093512;28;20967;-51
2022/08/06 03:14:50;;;;;;;5.10;4.60;;;20.30;99.90;;;;;;5093564;28;20517;-47
2022/08/06 03:17:18;;;;;;;4.60;4.20;;;20.30;99.90;;;;;;5093884;28;20450;-47
2022/08/06 03:19:47;;;;;;;4.87;4.43;;;20.30;99.90;;;;;;5093404;28;20447;-51
2022/08/06 03:22:16;;;;;;;4.70;3.97;;;20.30;99.90;;;;;;5093495;28;20446;-46
2022/08/06 03:24:45;;;;;;;6.23;4.50;;;20.40;99.90;;;;;;5093362;28;20503;-50
2022/08/06 03:27:15;;;;;;;5.37;4.83;;;20.40;99.90;;;;;;5093358;28;20439;-46
2022/08/06 03:29:44;;;;;;;5.90;4.33;;;20.40;99.90;;;;;;5093279;28;20435;-46
2022/08/06 03:32:13;;;;;;;5.80;4.47;;;20.50;99.90;;;;;;5093172;28;20463;-46
2022/08/06 03:34:41;;;;;;;6.70;4.90;;;20.40;99.90;;;;;;5093207;28;20467;-48
2022/08/06 03:37:11;;;;;;;4.63;4.17;;;20.30;99.90;;;;;;5093176;28;20435;-48
2022/08/06 03:39:40;;;;;;;7.00;4.67;;;20.20;99.90;;;;;;5093035;28;20525;-47
2022/08/06 03:42:07;;;;;;;5.00;4.50;;;20.20;99.90;;;;;;5093283;28;20493;-48
2022/08/06 03:44:34;;;;;;;5.07;4.37;;;20.10;99.90;;;;;;5092947;28;20452;-46
2022/08/06 03:47:07;;;;;;;5.43;4.50;;;20.00;99.90;;;;;;5093190;28;20447;-48
2022/08/06 03:49:38;;;;;;;6.23;4.30;;;20.00;99.90;;;;;;5093356;28;20443;-45
2022/08/06 03:52:07;;;;;;;5.10;4.20;;;20.00;99.90;;;;;;5092761;28;20467;-46
2022/08/06 03:54:41;;;;;;;5.30;4.80;;;19.90;99.90;;;;;;5149805;22;20483;-48
2022/08/06 03:57:12;;;;;;;5.20;4.70;;;19.90;99.90;;;;;;5093043;28;20439;-50
2022/08/06 03:59:43;;;;;;;5.67;4.20;;;19.90;99.90;;;;;;5092684;28;20440;-52
2022/08/06 04:02:11;;;;;;;5.33;4.03;;;19.90;99.90;;;;;;5093013;28;20496;-50
2022/08/06 04:04:39;;;;;;;4.00;3.60;;;19.80;99.90;;;;;;5091348;28;21061;-53
2022/08/06 04:07:07;;;;;;;4.50;4.07;;;19.90;99.90;;;;;;5093000;28;20447;-50
2022/08/06 04:09:36;;;;;;;4.13;3.83;;;20.00;99.90;;;;;;5092625;28;20447;-54
2022/08/06 04:12:05;;;;;;;5.07;4.67;;;20.00;99.90;;;;;;5092497;28;20500;-48
2022/08/06 04:14:32;;;;;;;4.83;4.27;;;20.00;99.90;;;;;;5092403;28;20517;-50
2022/08/06 04:17:01;;;;;;;4.30;3.90;;;20.10;99.90;;;;;;5092889;28;20482;-48
2022/08/06 04:19:29;;;;;;;4.37;4.03;;;20.10;99.90;;;;;;5092442;28;20501;-48
2022/08/06 04:21:56;;;;;;;4.80;3.60;;;20.10;99.90;;;;;;5092302;28;20435;-48
2022/08/06 04:24:23;;;;;;;4.50;4.10;;;20.10;99.90;;;;;;5092447;28;20512;-51
2022/08/06 04:26:54;;;;;;;3.87;3.50;;;20.10;99.90;;;;;;5092268;28;20516;-48
2022/08/06 04:29:22;;;;;;;4.73;4.33;;;20.10;99.90;;;;;;5091980;28;20436;-51
2022/08/06 04:31:51;;;;;;;4.60;4.20;;;20.20;99.90;;;;;;5092082;28;21045;-49
2022/08/06 04:34:23;;;;;;;4.13;3.73;;;20.10;99.90;;;;;;5092149;28;20443;-48
2022/08/06 04:36:51;;;;;;;4.40;3.47;;;20.10;99.90;;;;;;5092109;28;20495;-51
2022/08/06 04:39:19;;;;;;;5.40;4.90;;;20.00;99.90;;;;;;5091958;28;20922;-51
2022/08/06 04:41:46;;;;;;;5.67;4.50;;;19.90;99.90;;;;;;5092064;28;21010;-48
2022/08/06 04:44:15;;;;;;;6.07;5.00;;;19.90;99.90;;;;;;5091948;28;20444;-48
2022/08/06 04:46:43;;;;;;;5.43;4.67;;;19.90;99.90;;;;;;5092008;28;20428;-48
2022/08/06 04:49:10;;;;;;;6.20;5.57;;;19.90;99.90;;;;;;5091586;28;20459;-50
2022/08/06 04:51:38;;;;;;;5.43;4.30;;;19.70;99.90;;;;;;5091764;28;20902;-48
2022/08/06 04:54:06;;;;;;;7.90;5.10;;;19.60;99.90;;;;;;5091747;28;20833;-49
2022/08/06 04:56:33;;;;;;;6.67;4.60;;;19.60;99.90;;;;;;5091690;28;20966;-49
2022/08/06 04:59:00;;;;;;;4.27;3.43;;;19.70;99.90;;;;;;5091497;28;20451;-49
2022/08/06 05:01:28;;;;;;;4.03;3.13;;;19.80;99.90;;;;;;5091781;28;20516;-48
2022/08/06 05:03:55;;;;;;;4.50;3.80;;;19.90;99.90;;;;;;5091357;28;20444;-51
2022/08/06 05:06:26;;;;;;;3.43;3.03;;;20.00;99.90;;;;;;5091470;28;20819;-50
2022/08/06 05:08:59;;;;;;;3.00;2.50;;;19.90;99.90;;;;;;5091417;28;20447;-49
2022/08/06 05:11:29;;;;;;;3.57;2.73;;;19.90;99.90;;;;;;5091522;28;20993;-48
2022/08/06 05:14:02;;;;;;;5.23;3.30;;;19.90;99.90;;;;;;5091526;28;20467;-51
2022/08/06 05:16:34;;;;;;;3.57;3.00;;;19.90;99.90;;;;;;5091029;28;20944;-48
2022/08/06 05:19:03;;;;;;;3.50;3.20;;;20.00;99.90;;;;;;5091172;28;20448;-48
2022/08/06 05:21:34;;;;;;;6.73;4.43;;;20.10;99.90;;;;;;5091220;28;20435;-48
2022/08/06 05:24:01;;;;;;;4.40;4.00;;;20.20;99.90;;;;;;5091164;28;20439;-51
2022/08/06 05:26:28;;;;;;;4.40;3.27;;;20.30;99.90;;;;;;5091271;28;20444;-48
2022/08/06 05:28:55;;;;;;;4.20;3.80;;;20.20;99.90;;;;;;5090969;28;20512;-50
2022/08/06 05:31:35;;;;;;;5.17;4.40;;;20.20;99.90;;;;;;5091111;28;20537;-49
2022/08/06 05:34:03;;;;;;;6.60;4.50;;;20.20;99.90;;;;;;5090930;28;20787;-48
2022/08/06 05:36:30;;;;;;;4.97;4.00;;;20.20;99.90;;;;;;5091107;28;20789;-50
2022/08/06 05:38:57;;;;;;;3.43;3.10;;;20.20;99.90;;;;;;5090746;28;20471;-48
2022/08/06 05:41:24;;;;;;;5.63;4.23;;;20.20;99.90;;;;;;5090743;28;20527;-51
2022/08/06 05:43:51;;;;;;;4.87;3.73;;;20.20;99.90;;;;;;5090734;28;20481;-48
2022/08/06 05:46:20;;;;;;;4.40;4.00;;;20.20;99.90;;;;;;5090905;28;20472;-52
2022/08/06 05:48:54;;;;;;;5.60;4.93;;;20.10;99.90;;;;;;5090588;28;20436;-48
2022/08/06 05:51:27;;;;;;;5.13;4.63;;;20.00;99.90;;;;;;5090809;28;20435;-46
2022/08/06 05:54:00;;;;;;;5.33;4.83;;;20.10;99.90;;;;;;5090554;28;20501;-51
2022/08/06 05:56:30;;;;;;;4.60;4.20;;;20.00;99.90;;;;;;5090551;28;20505;-51
2022/08/06 05:59:02;;;;;;;6.03;5.40;;;20.00;99.90;;;;;;5090425;28;20435;-51
2022/08/06 06:01:31;;;;;;;6.80;6.20;;;20.00;99.90;;;;;;5090755;28;20439;-49
2022/08/06 06:04:00;;;;;;;6.63;6.00;;;20.10;99.90;;;;;;5090099;28;20443;-50
2022/08/06 06:06:28;;;;;;;5.60;5.10;;;20.10;99.90;;;;;;5090762;28;20456;-48
2022/08/06 06:08:55;;;;;;;6.40;5.90;;;20.10;99.90;;;;;;5090357;28;20440;-48
2022/08/06 06:11:23;;;;;;;6.43;5.67;;;20.20;99.90;;;;;;5090365;28;20444;-49
2022/08/06 06:13:51;;;;;;;8.77;5.47;;;20.20;99.90;;;;;;5090372;28;20481;-50
2022/08/06 06:16:25;;;;;;;5.53;5.10;;;20.20;99.90;;;;;;5090463;28;20718;-49
2022/08/06 06:19:14;;;;;;;4.70;4.30;;;20.30;99.90;;;;;;5090072;28;20506;-52
2022/08/06 06:21:48;;;;;;;6.17;5.67;;;20.40;99.90;;;;;;5090372;28;21007;-48
2022/08/06 06:24:22;;;;;;;6.20;5.60;;;20.30;99.90;;;;;;5090118;28;20435;-48
2022/08/06 06:26:54;;;;;;;5.40;4.90;;;20.30;99.90;;;;;;5090187;28;20440;-52
2022/08/06 06:29:35;;;;;;;7.13;5.37;;;20.40;99.90;;;;;;5089356;28;20451;-50
2022/08/06 06:32:09;;;;;;;5.40;5.00;;;20.40;99.90;;;;;;5090262;28;20836;-48
2022/08/06 06:34:49;;;;;;;5.43;4.93;;;20.40;99.90;;;;;;5090128;28;20467;-48
2022/08/06 06:37:25;;;;;;;5.87;4.70;;;20.50;99.90;;;;;;5090072;28;20455;-48
2022/08/06 06:40:03;;;;;;;7.90;5.30;;;20.60;99.90;;;;;;5089837;28;20492;-50
2022/08/06 06:42:38;;;;;;;5.43;4.77;;;20.60;99.90;;;;;;5089987;28;20431;-50
2022/08/06 06:45:26;;;;;;;5.13;4.67;;;20.50;99.90;;;;;;5089981;28;20463;-48
2022/08/06 06:48:00;;;;;;;5.80;5.30;;;20.60;99.90;;;;;;5089888;28;20489;-49
2022/08/06 06:50:32;;;;;;;5.50;4.83;;;20.60;99.90;;;;;;5089625;28;20526;-49
2022/08/06 06:53:00;;;;;;;5.63;5.13;;;20.70;99.90;;;;;;5089808;28;20471;-48
2022/08/06 06:55:34;;;;;;;4.70;4.30;;;20.70;99.90;;;;;;5089648;28;20475;-48
2022/08/06 06:58:07;;;;;;;4.77;4.37;;;20.70;99.90;;;;;;5089933;28;20940;-50
2022/08/06 07:00:35;;;;;;;12.37;5.63;;;20.80;99.90;;;;;;5089725;28;20475;-48
2022/08/06 07:03:03;;;;;;;7.57;5.97;;;20.80;99.90;;;;;;5089481;28;20440;-50
2022/08/06 07:05:35;;;;;;;6.70;5.00;;;20.90;99.90;;;;;;5089729;28;20975;-50
2022/08/06 07:08:05;;;;;;;10.57;6.83;;;21.00;99.90;;;;;;5072229;28;20442;-48
2022/08/06 07:10:33;;;;;;;5.93;5.40;;;21.00;99.90;;;;;;5089440;28;20554;-46
2022/08/06 07:13:02;;;;;;;5.70;5.10;;;21.00;99.90;;;;;;5089497;28;20478;-48
2022/08/06 07:15:30;;;;;;;6.20;5.50;;;21.00;99.90;;;;;;5089505;28;20874;-49
2022/08/06 07:17:59;;;;;;;18.90;6.83;;;21.10;99.90;;;;;;5089687;28;20420;-49
2022/08/06 07:20:30;;;;;;;9.60;5.97;;;21.10;99.90;;;;;;5089338;28;20952;-50
2022/08/06 07:23:01;;;;;;;7.50;4.90;;;21.10;99.90;;;;;;5089380;28;20440;-50
2022/08/06 07:25:28;;;;;;;5.77;5.27;;;21.20;99.90;;;;;;5089480;28;20532;-48
2022/08/06 07:27:55;;;;;;;8.03;5.30;;;21.20;99.90;;;;;;5089330;28;20508;-50
2022/08/06 07:30:24;;;;;;;6.23;5.63;;;21.20;99.90;;;;;;5089298;28;20512;-49
2022/08/06 07:32:51;;;;;;;14.13;5.40;;;21.20;99.90;;;;;;5089264;28;20535;-54
2022/08/06 07:35:20;;;;;;;6.10;5.23;;;21.10;99.90;;;;;;5089326;28;21033;-48
2022/08/06 07:37:57;;;;;;;6.73;5.40;;;21.20;99.90;;;;;;5089368;28;20607;-50
2022/08/06 07:40:28;;;;;;;5.33;4.50;;;21.30;99.90;;;;;;5091857;28;20943;-48
2022/08/06 07:43:00;;;;;;;5.70;5.03;;;21.20;99.90;;;;;;5093158;28;20860;-48
2022/08/06 07:45:32;;;;;;;6.40;5.80;;;21.20;99.90;;;;;;5093182;28;20921;-50
2022/08/06 07:48:05;;;;;;;6.00;5.40;;;21.30;99.90;;;;;;5093039;28;20443;-49
2022/08/06 07:50:33;;;;;;;5.93;5.33;;;21.30;99.90;;;;;;5092832;28;20439;-51
2022/08/06 07:53:00;;;;;;;5.67;5.17;;;21.20;99.90;;;;;;5092710;28;20482;-50
2022/08/06 07:55:29;;;;;;;6.43;5.83;;;21.20;99.90;;;;;;5092793;28;20467;-51
2022/08/06 07:57:57;;;;;;;5.90;5.40;;;21.20;99.90;;;;;;5092872;28;20444;-51
2022/08/06 08:00:25;;;;;;;15.60;12.80;;;21.20;99.90;;;;;;5092520;28;20819;-53
2022/08/06 08:08:33;;;;;;;7.10;6.40;;;21.40;99.90;;;;;;5055478;28;20237;-48
2022/08/06 08:11:02;;;;;;;6.97;6.27;;;21.50;99.90;;;;;;5092411;28;20497;-51
2022/08/06 08:13:31;;;;;;;5.87;5.27;;;21.60;99.90;;;;;;5092321;28;20988;-49
2022/08/06 08:15:58;;;;;;;5.80;5.20;;;21.60;99.90;;;;;;5092379;28;20467;-49
2022/08/06 08:18:30;;;;;;;6.27;5.67;;;21.60;99.90;;;;;;5092454;28;20447;-48
2022/08/06 08:20:59;;;;;;;8.50;6.23;;;21.70;99.90;;;;;;5092280;28;20451;-51
2022/08/06 08:23:27;;;;;;;6.30;5.80;;;21.70;99.90;;;;;;5092316;28;20471;-53
2022/08/06 08:25:56;;;;;;;6.07;5.40;;;21.80;99.90;;;;;;5092421;28;20517;-52
2022/08/06 08:28:24;;;;;;;6.00;5.40;;;21.70;99.90;;;;;;5092274;28;20542;-49
2022/08/06 08:30:51;;;;;;;5.87;5.27;;;21.80;99.90;;;;;;5091983;28;20508;-48
2022/08/06 08:33:19;;;;;;;6.07;5.57;;;21.70;99.90;;;;;;5091853;28;20548;-54
2022/08/06 08:35:46;;;;;;;10.33;8.90;;;21.80;99.90;;;;;;5091941;28;20507;-50
2022/08/06 08:38:13;;;;;;;6.30;5.43;;;21.70;99.90;;;;;;5091928;28;20428;-48
2022/08/06 08:40:41;;;;;;;9.77;5.53;;;21.80;99.90;;;;;;5091890;28;20447;-46
2022/08/06 08:43:12;;;;;;;5.53;4.93;;;21.90;99.90;;;;;;5092254;28;20493;-47
2022/08/06 08:45:44;;;;;;;5.63;5.10;;;21.90;99.90;;;;;;5091814;28;20533;-46
2022/08/06 08:48:13;;;;;;;5.33;4.93;;;22.00;99.90;;;;;;5091953;28;20455;-47
2022/08/06 08:50:43;;;;;;;5.67;5.07;;;22.00;99.90;;;;;;5090962;28;20444;-48
2022/08/06 08:53:15;;;;;;;5.87;5.37;;;22.10;99.90;;;;;;5091661;28;20528;-48
2022/08/06 08:55:43;;;;;;;6.47;5.70;;;22.10;99.90;;;;;;5091695;28;20467;-48
2022/08/06 08:58:12;;;;;;;5.17;4.77;;;22.10;99.90;;;;;;5091558;28;21086;-46
2022/08/06 09:00:42;;;;;;;5.40;4.90;;;22.10;99.90;;;;;;5091414;28;20502;-46
2022/08/06 09:03:09;;;;;;;6.43;4.93;;;22.10;99.90;;;;;;5091321;28;20505;-48
2022/08/06 09:05:36;;;;;;;5.07;4.67;;;22.20;99.90;;;;;;5091445;28;20471;-48
2022/08/06 09:08:04;;;;;;;6.63;5.00;;;22.20;99.90;;;;;;5091437;28;20448;-50
2022/08/06 09:10:31;;;;;;;5.33;4.60;;;22.20;99.90;;;;;;5091165;28;20428;-47
2022/08/06 09:12:58;;;;;;;6.80;4.40;;;22.20;99.90;;;;;;5091293;28;20525;-46
2022/08/06 09:15:25;;;;;;;4.00;3.60;;;22.10;99.90;;;;;;5091478;28;20471;-47
2022/08/06 09:17:54;;;;;;;4.17;3.87;;;22.10;99.90;;;;;;5091199;28;20462;-46
2022/08/06 09:20:21;;;;;;;5.90;4.10;;;22.00;99.90;;;;;;5090929;28;20431;-46
2022/08/06 09:22:50;;;;;;;6.00;4.90;;;22.00;99.90;;;;;;5090896;28;20997;-49
2022/08/06 09:25:42;;;;;;;4.93;4.43;;;22.00;99.90;;;;;;5090941;28;20932;-46
2022/08/06 09:28:30;;;;;;;4.90;4.40;;;21.90;99.90;;;;;;5071197;28;20537;-46
2022/08/06 09:31:02;;;;;;;5.27;4.63;;;21.90;99.90;;;;;;5090936;28;20444;-46
2022/08/06 09:33:31;;;;;;;6.23;4.47;;;21.90;99.90;;;;;;5090945;28;20459;-47
2022/08/06 09:36:00;;;;;;;5.60;5.10;;;21.80;99.90;;;;;;5090737;28;20818;-48
2022/08/06 09:38:28;;;;;;;4.70;4.23;;;21.80;99.90;;;;;;5090815;28;20516;-47
2022/08/06 09:41:06;;;;;;;8.80;7.90;;;21.80;99.90;;;;;;5090758;28;20932;-49
2022/08/06 09:43:34;;;;;;;10.17;9.17;;;21.90;99.90;;;;;;5090349;28;20989;-48
2022/08/06 09:46:00;;;;;;;6.60;6.00;;;21.80;99.90;;;;;;5090938;28;20538;-46
2022/08/06 09:48:27;;;;;;;6.23;5.20;;;21.80;99.90;;;;;;5090329;28;20474;-48
2022/08/06 09:50:56;;;;;;;6.07;5.47;;;21.80;99.90;;;;;;5090410;28;20424;-47
2022/08/06 09:53:23;;;;;;;37.33;11.97;;;21.80;99.90;;;;;;5090178;28;20463;-46
2022/08/06 09:55:51;;;;;;;9.10;8.20;;;21.80;99.90;;;;;;5137943;22;20992;-46
2022/08/06 09:58:33;;;;;;;14.83;13.33;;;21.80;99.90;;;;;;5070075;28;20440;-48
2022/08/06 10:01:13;;;;;;;7.33;6.43;;;21.90;99.90;;;;;;5069306;28;20498;-48
2022/08/06 10:03:41;;;;;;;8.50;7.60;;;21.80;99.90;;;;;;5069684;28;20505;-46
2022/08/06 10:06:11;;;;;;;8.30;6.37;;;21.80;99.90;;;;;;5082899;28;20459;-46
2022/08/06 10:08:39;;;;;;;6.97;6.27;;;21.80;99.90;;;;;;5090131;28;20515;-46
2022/08/06 10:11:06;;;;;;;11.13;6.60;;;21.80;99.90;;;;;;5090284;28;20445;-46
2022/08/06 10:13:35;;;;;;;6.77;6.10;;;21.70;99.90;;;;;;5090117;28;20472;-45
2022/08/06 10:16:15;;;;;;;6.07;5.57;;;21.70;99.90;;;;;;5090260;28;20882;-46
2022/08/06 10:18:43;;;;;;;6.47;5.87;;;21.70;99.90;;;;;;5090216;28;20482;-46
2022/08/06 10:21:13;;;;;;;9.57;6.23;;;21.70;99.90;;;;;;5090319;28;20512;-49
2022/08/06 10:23:42;;;;;;;5.90;5.40;;;21.70;99.90;;;;;;5090636;28;20499;-46
2022/08/06 10:26:12;;;;;;;6.30;5.63;;;21.70;99.90;;;;;;5090287;28;20780;-46
2022/08/06 10:28:40;;;;;;;6.73;5.60;;;21.70;99.90;;;;;;5090424;28;20431;-46
2022/08/06 10:31:09;;;;;;;4.77;4.33;;;21.60;99.90;;;;;;5089592;28;20494;-46
2022/08/06 10:33:42;;;;;;;6.67;5.60;;;21.60;99.90;;;;;;5090032;28;20460;-49
2022/08/06 10:36:14;;;;;;;6.40;5.80;;;21.60;99.90;;;;;;5089810;28;20918;-47
2022/08/06 10:38:46;;;;;;;6.93;5.60;;;21.70;99.90;;;;;;5089849;28;20519;-45
2022/08/06 10:41:14;;;;;;;6.07;5.10;;;21.70;99.90;;;;;;5089959;28;20470;-48
2022/08/06 10:43:42;;;;;;;6.17;5.10;;;21.70;99.90;;;;;;5090026;28;20447;-47
2022/08/06 10:46:12;;;;;;;5.67;5.20;;;21.80;99.90;;;;;;5089962;28;20471;-47
2022/08/06 10:48:41;;;;;;;5.00;4.50;;;21.80;99.90;;;;;;5090016;28;20485;-57
2022/08/06 10:51:10;;;;;;;6.67;5.50;;;21.80;99.90;;;;;;5089859;28;20443;-49
2022/08/06 10:53:40;;;;;;;4.93;4.43;;;21.80;99.90;;;;;;5089786;28;20499;-46
2022/08/06 10:56:09;;;;;;;4.80;4.40;;;21.80;99.90;;;;;;5089795;28;20479;-50
2022/08/06 10:58:38;;;;;;;5.97;5.00;;;21.80;99.90;;;;;;5090061;28;20432;-48
2022/08/06 11:01:08;;;;;;;5.00;4.60;;;21.90;99.90;;;;;;5089810;28;20538;-49
2022/08/06 11:03:50;;;;;;;4.80;4.40;;;21.80;99.90;;;;;;5089987;28;20439;-49
2022/08/06 11:06:40;;;;;;;5.33;4.83;;;21.80;99.90;;;;;;5089633;28;20451;-46
2022/08/06 11:09:25;;;;;;;6.17;5.57;;;21.90;99.90;;;;;;5089472;28;20432;-48
2022/08/06 11:12:15;;;;;;;6.80;5.67;;;21.90;99.90;;;;;;5089886;28;20507;-46
2022/08/06 11:14:44;;;;;;;5.20;4.73;;;22.00;99.90;;;;;;5091206;28;20544;-46
2022/08/06 11:17:12;;;;;;;4.60;4.30;;;22.00;99.90;;;;;;5093834;28;20464;-48
2022/08/06 11:19:42;;;;;;;4.47;4.07;;;22.00;99.90;;;;;;5093437;28;20443;-47
2022/08/06 11:22:29;;;;;;;7.37;4.50;;;22.10;99.90;;;;;;5093993;28;20431;-49
2022/08/06 11:24:58;;;;;;;4.03;3.50;;;22.00;99.90;;;;;;5093459;28;20489;-49
2022/08/06 11:27:51;;;;;;;3.97;3.57;;;22.00;99.90;;;;;;5093622;28;20571;-51
2022/08/06 11:30:18;;;;;;;4.30;3.90;;;22.00;99.90;;;;;;5093070;28;20504;-50
2022/08/06 11:32:47;;;;;;;4.77;4.27;;;22.00;99.90;;;;;;5093472;28;20455;-51
2022/08/06 11:35:40;;;;;;;3.70;3.40;;;22.00;99.90;;;;;;5092986;28;20532;-46
2022/08/06 11:38:09;;;;;;;6.23;4.27;;;22.00;99.90;;;;;;5093310;28;20447;-47
2022/08/06 11:40:58;;;;;;;4.23;3.83;;;21.90;99.90;;;;;;5093082;28;20497;-49
2022/08/06 11:43:46;;;;;;;4.87;4.47;;;21.80;99.90;;;;;;5093277;28;20805;-47
2022/08/06 11:46:21;;;;;;;4.13;3.73;;;21.70;99.90;;;;;;5093030;28;20488;-48
2022/08/06 11:49:14;;;;;;;4.40;3.97;;;21.70;99.90;;;;;;5092675;28;20436;-48
2022/08/06 11:51:43;;;;;;;3.97;3.60;;;21.70;99.90;;;;;;5093071;28;20828;-47
2022/08/06 11:54:12;;;;;;;3.73;3.33;;;21.70;99.90;;;;;;5092917;28;20479;-47
2022/08/06 11:57:16;;;;;;;4.40;3.73;;;21.80;99.90;;;;;;5092671;28;20474;-51
2022/08/06 12:00:01;;;;;;;5.40;4.00;;;21.80;99.90;;;;;;5092709;28;21004;-51
2022/08/06 12:02:56;;;;;;;4.00;3.60;;;21.80;99.90;;;;;;5092830;28;20451;-48
2022/08/06 12:05:38;;;;;;;4.10;3.70;;;21.80;99.90;;;;;;5092553;28;20516;-46
2022/08/06 12:08:26;;;;;;;6.50;4.70;;;21.70;99.90;;;;;;5092770;28;20496;-50
2022/08/06 12:11:35;;;;;;;5.23;4.30;;;21.60;99.90;;;;;;5092510;28;20463;-46
2022/08/06 12:14:02;;;;;;;4.47;4.07;;;21.60;99.90;;;;;;5085578;28;20508;-47
2022/08/06 12:16:37;;;;;;;4.60;4.20;;;21.60;99.90;;;;;;5092747;28;20464;-47
2022/08/06 12:19:11;;;;;;;5.23;4.73;;;21.60;99.90;;;;;;5092324;28;20439;-47
2022/08/06 12:21:40;;;;;;;4.10;3.73;;;21.70;99.90;;;;;;5092393;28;20432;-46
2022/08/06 12:24:08;;;;;;;5.83;3.77;;;21.70;99.90;;;;;;5092295;28;20476;-46
2022/08/06 12:26:35;;;;;;;4.40;4.00;;;21.80;99.90;;;;;;5091114;28;20566;-46
2022/08/06 12:29:04;;;;;;;4.03;3.60;;;21.80;99.90;;;;;;5092198;28;20435;-47
2022/08/06 12:31:35;;;;;;;4.27;3.70;;;21.80;99.90;;;;;;5091679;28;20454;-48
2022/08/06 12:34:02;;;;;;;4.00;3.70;;;21.70;99.90;;;;;;5091942;28;20476;-47
2022/08/06 12:36:31;;;;;;;3.90;3.60;;;21.80;99.90;;;;;;5092050;28;20463;-51
2022/08/06 12:39:00;;;;;;;4.50;3.77;;;21.80;99.90;;;;;;5091805;28;20439;-48
2022/08/06 12:41:41;;;;;;;4.50;4.10;;;21.80;99.90;;;;;;5092039;28;20546;-46
2022/08/06 12:44:13;;;;;;;3.67;3.37;;;21.70;99.90;;;;;;5091867;28;20436;-42
2022/08/06 12:46:41;;;;;;;3.77;3.43;;;21.70;99.90;;;;;;5091588;28;20845;-47
2022/08/06 12:49:09;;;;;;;3.50;3.13;;;21.80;99.90;;;;;;5091749;28;20435;-51
2022/08/06 12:51:37;;;;;;;3.70;3.40;;;21.80;99.90;;;;;;5091850;28;20928;-48
2022/08/06 12:54:07;;;;;;;4.63;3.30;;;21.80;99.90;;;;;;5091705;28;20474;-46
2022/08/06 12:56:40;;;;;;;3.97;3.57;;;21.80;99.90;;;;;;5091623;28;20567;-46
2022/08/06 12:59:11;;;;;;;4.83;3.40;;;21.80;99.90;;;;;;5091466;28;20428;-49
2022/08/06 13:01:38;;;;;;;4.10;3.57;;;21.80;99.90;;;;;;5091931;28;20496;-47
2022/08/06 13:04:10;;;;;;;6.60;4.30;;;21.80;99.90;;;;;;5091717;28;20932;-50
2022/08/06 13:06:39;;;;;;;3.93;3.53;;;21.70;99.90;;;;;;5091435;28;20679;-53
2022/08/06 13:09:06;;;;;;;4.43;3.67;;;21.80;99.90;;;;;;5091293;28;20438;-49
2022/08/06 13:11:34;;;;;;;5.77;4.10;;;21.80;99.90;;;;;;5092044;28;20494;-47